Time;durP1;ratioP1;P1;durP2;ratioP2;P2;SDS_P1;SDS_P2;PMS_P1;PMS_P2;Temp;Humidity;BMP_temperature;BMP_pressure;BME280_temperature;BME280_humidity;BME280_pressure;Samples;Min_cycle;Max_cycle;Signal;HPM_P1;HPM_P2
2023/10/31 00:00:17;;;;;;;2.03;0.90;;;18.00;51.30;;;;;;6134519;23;20139;-85
2023/10/31 00:02:43;;;;;;;4.57;1.13;;;17.90;51.20;;;;;;6186486;23;20509;-84
2023/10/31 00:05:08;;;;;;;1.15;1.00;;;18.00;51.40;;;;;;6160665;23;20143;-84
2023/10/31 00:07:41;;;;;;;3.80;1.20;;;17.90;51.30;;;;;;6185428;23;20210;-84
2023/10/31 00:10:07;;;;;;;1.80;1.10;;;18.00;51.40;;;;;;6110334;23;20158;-85
2023/10/31 00:12:33;;;;;;;2.70;1.20;;;18.00;51.40;;;;;;6185019;23;20131;-84
2023/10/31 00:14:58;;;;;;;1.88;1.17;;;18.00;51.40;;;;;;6184706;23;20145;-85
2023/10/31 00:17:24;;;;;;;1.85;1.13;;;18.00;51.40;;;;;;6184879;23;20131;-86
2023/10/31 00:19:50;;;;;;;1.35;1.02;;;18.00;51.40;;;;;;6184823;23;20250;-85
2023/10/31 00:22:19;;;;;;;1.42;1.00;;;18.00;51.40;;;;;;6135418;23;20150;-83
2023/10/31 00:24:45;;;;;;;1.65;0.90;;;17.90;51.50;;;;;;6134770;23;20217;-83
2023/10/31 00:27:11;;;;;;;1.10;1.00;;;18.00;51.60;;;;;;6184880;23;20178;-84
2023/10/31 00:29:40;;;;;;;2.35;0.95;;;17.90;51.50;;;;;;6088941;23;20190;-84
2023/10/31 00:32:08;;;;;;;1.30;0.90;;;17.90;51.50;;;;;;6160183;23;20475;-84
2023/10/31 00:34:34;;;;;;;1.73;0.98;;;17.90;51.60;;;;;;6110267;23;20206;-84
2023/10/31 00:37:02;;;;;;;1.92;0.77;;;17.90;51.50;;;;;;6159886;23;20151;-84
2023/10/31 00:39:27;;;;;;;0.90;0.80;;;17.90;51.50;;;;;;6085972;23;20217;-85
2023/10/31 00:41:53;;;;;;;2.05;1.20;;;18.00;51.60;;;;;;6184707;23;20139;-84
2023/10/31 00:44:19;;;;;;;0.93;0.93;;;17.90;51.50;;;;;;6159975;23;20162;-85
2023/10/31 00:46:46;;;;;;;2.53;0.90;;;17.90;51.60;;;;;;6134549;23;20225;-85
2023/10/31 00:49:11;;;;;;;1.52;1.02;;;17.90;51.50;;;;;;6184551;23;20279;-86
2023/10/31 00:51:37;;;;;;;1.25;0.93;;;17.90;51.60;;;;;;6159922;23;20131;-85
2023/10/31 00:54:03;;;;;;;1.02;0.80;;;17.90;51.60;;;;;;6183609;23;20186;-84
2023/10/31 00:56:28;;;;;;;1.85;1.08;;;17.90;51.60;;;;;;6159852;23;20135;-86
2023/10/31 00:58:54;;;;;;;1.73;1.00;;;17.90;51.60;;;;;;6159610;23;20175;-85
2023/10/31 01:01:19;;;;;;;1.70;1.10;;;17.90;51.60;;;;;;6159620;23;20154;-84
2023/10/31 01:03:46;;;;;;;0.77;0.77;;;17.90;51.70;;;;;;6186382;23;20138;-83
2023/10/31 01:06:12;;;;;;;2.28;0.90;;;17.90;51.70;;;;;;6184452;23;20206;-84
2023/10/31 01:08:37;;;;;;;1.23;1.00;;;17.80;51.60;;;;;;6184450;23;20213;-84
2023/10/31 01:11:03;;;;;;;3.53;1.08;;;17.90;51.70;;;;;;6184322;23;20147;-85
2023/10/31 01:13:29;;;;;;;1.98;1.10;;;17.90;51.70;;;;;;6134795;23;20189;-85
2023/10/31 01:15:54;;;;;;;1.20;1.00;;;17.80;51.70;;;;;;6159530;23;20145;-84
2023/10/31 01:18:20;;;;;;;2.60;1.13;;;17.80;51.80;;;;;;6159264;23;20598;-85
2023/10/31 01:20:46;;;;;;;1.42;0.90;;;17.90;51.80;;;;;;6185838;23;20174;-83
2023/10/31 01:23:11;;;;;;;2.33;1.02;;;17.80;51.70;;;;;;6184346;23;20139;-84
2023/10/31 01:25:37;;;;;;;2.47;0.93;;;17.90;51.80;;;;;;6184349;23;20211;-86
2023/10/31 01:28:04;;;;;;;1.17;0.80;;;17.80;51.80;;;;;;6159536;23;20559;-84
2023/10/31 01:30:30;;;;;;;1.98;1.15;;;17.80;51.80;;;;;;6125834;23;20205;-85
2023/10/31 01:32:55;;;;;;;3.22;1.27;;;17.80;51.80;;;;;;6189477;23;20228;-84
2023/10/31 01:35:21;;;;;;;2.10;1.08;;;17.80;51.90;;;;;;6164393;23;20146;-84
2023/10/31 01:37:47;;;;;;;2.17;1.20;;;17.80;51.90;;;;;;6164478;23;20538;-84
2023/10/31 01:40:14;;;;;;;2.42;1.30;;;17.80;51.90;;;;;;6189106;23;20169;-84
2023/10/31 01:42:39;;;;;;;1.35;1.20;;;17.80;51.90;;;;;;6189196;23;20138;-83
2023/10/31 01:45:06;;;;;;;2.05;0.73;;;17.80;52.00;;;;;;6189256;23;20142;-84
2023/10/31 01:47:33;;;;;;;2.03;1.05;;;17.80;52.00;;;;;;6188879;23;20145;-85
2023/10/31 01:49:59;;;;;;;1.80;1.08;;;17.80;52.00;;;;;;6164084;23;20161;-84
2023/10/31 01:52:26;;;;;;;1.95;0.90;;;17.80;52.00;;;;;;6164525;23;20142;-85
2023/10/31 01:54:52;;;;;;;1.33;1.10;;;17.80;52.00;;;;;;6188252;23;20181;-83
2023/10/31 01:57:19;;;;;;;1.90;1.20;;;17.80;52.00;;;;;;6215566;23;20134;-84
2023/10/31 01:59:45;;;;;;;2.63;1.30;;;17.70;51.90;;;;;;6164092;23;20162;-84
2023/10/31 02:02:10;;;;;;;2.75;1.10;;;17.80;52.00;;;;;;6188869;23;20200;-85
2023/10/31 02:04:36;;;;;;;2.08;1.00;;;17.80;52.00;;;;;;6188843;23;20170;-84
2023/10/31 02:07:02;;;;;;;1.80;1.10;;;17.80;52.00;;;;;;6188807;23;20225;-83
2023/10/31 02:09:29;;;;;;;2.03;1.10;;;17.70;52.10;;;;;;6164040;23;20258;-85
2023/10/31 02:11:55;;;;;;;1.38;1.10;;;17.80;52.10;;;;;;6165011;23;20221;-85
2023/10/31 02:14:25;;;;;;;2.28;1.00;;;17.80;52.10;;;;;;6188997;23;20522;-85
2023/10/31 02:16:51;;;;;;;1.98;1.00;;;17.80;52.10;;;;;;6139014;23;20153;-83
2023/10/31 02:19:20;;;;;;;1.10;0.90;;;17.80;52.10;;;;;;6139241;23;20478;-83
2023/10/31 02:21:47;;;;;;;1.50;1.17;;;17.80;52.20;;;;;;6164290;23;20191;-84
2023/10/31 02:24:12;;;;;;;1.52;1.00;;;17.80;52.20;;;;;;6113564;23;20160;-84
2023/10/31 02:26:38;;;;;;;1.38;1.00;;;17.80;52.20;;;;;;6164048;23;20162;-84
2023/10/31 02:29:04;;;;;;;3.20;1.05;;;17.80;52.10;;;;;;6164091;23;20134;-83
2023/10/31 02:31:30;;;;;;;1.73;1.20;;;17.80;52.10;;;;;;6158643;23;20187;-85
2023/10/31 02:33:56;;;;;;;1.13;0.98;;;17.70;52.10;;;;;;6159081;23;20490;-84
2023/10/31 02:36:23;;;;;;;1.23;1.08;;;17.80;52.20;;;;;;6183556;23;20243;-85
2023/10/31 02:38:49;;;;;;;4.43;1.17;;;17.70;52.10;;;;;;6134500;23;20174;-85
2023/10/31 02:41:15;;;;;;;2.35;1.30;;;17.70;52.20;;;;;;6159157;23;20151;-86
2023/10/31 02:43:41;;;;;;;1.70;0.90;;;17.80;52.20;;;;;;6134366;23;20537;-84
2023/10/31 02:46:07;;;;;;;2.38;1.00;;;17.70;52.20;;;;;;6158980;23;20162;-85
2023/10/31 02:48:38;;;;;;;2.65;1.20;;;17.60;52.20;;;;;;6158568;23;20147;-85
2023/10/31 02:51:05;;;;;;;3.55;1.15;;;17.70;52.20;;;;;;6159780;23;20146;-84
2023/10/31 02:53:31;;;;;;;2.45;1.10;;;17.60;52.20;;;;;;6182824;23;20135;-84
2023/10/31 02:55:57;;;;;;;2.08;0.93;;;17.70;52.20;;;;;;6158896;23;20576;-84
2023/10/31 02:58:22;;;;;;;1.40;1.00;;;17.70;52.30;;;;;;6134095;23;20198;-83
2023/10/31 03:00:48;;;;;;;1.33;0.90;;;17.70;52.30;;;;;;6158770;23;20474;-85
2023/10/31 03:03:14;;;;;;;1.98;1.13;;;17.70;52.30;;;;;;6183467;23;20202;-85
2023/10/31 03:05:40;;;;;;;1.95;1.13;;;17.70;52.30;;;;;;6183418;23;20229;-85
2023/10/31 03:08:08;;;;;;;1.35;1.10;;;17.70;52.30;;;;;;6183539;23;20471;-84
2023/10/31 03:10:33;;;;;;;1.00;0.90;;;17.70;52.30;;;;;;6158978;23;20161;-86
2023/10/31 03:12:59;;;;;;;1.30;1.00;;;17.70;52.30;;;;;;6159101;23;20570;-84
2023/10/31 03:15:25;;;;;;;1.45;1.02;;;17.70;52.30;;;;;;6134176;23;20237;-84
2023/10/31 03:17:50;;;;;;;1.88;1.00;;;17.70;52.30;;;;;;6158686;23;20182;-84
2023/10/31 03:20:16;;;;;;;1.10;1.00;;;17.60;52.30;;;;;;6183407;23;20221;-85
2023/10/31 03:22:41;;;;;;;3.75;1.23;;;17.70;52.30;;;;;;6158848;23;20143;-86
2023/10/31 03:25:07;;;;;;;1.33;1.00;;;17.70;52.40;;;;;;6183382;23;20135;-84
2023/10/31 03:27:33;;;;;;;1.90;1.10;;;17.70;52.40;;;;;;6158604;23;20222;-83
2023/10/31 03:29:59;;;;;;;1.20;1.10;;;17.70;52.40;;;;;;6133730;23;20998;-84
2023/10/31 03:32:25;;;;;;;2.63;1.02;;;17.70;52.40;;;;;;6183075;23;20151;-85
2023/10/31 03:34:51;;;;;;;2.45;1.30;;;17.70;52.40;;;;;;6158486;23;20143;-84
2023/10/31 03:37:16;;;;;;;2.08;1.10;;;17.70;52.40;;;;;;6136100;23;20267;-83
2023/10/31 03:39:42;;;;;;;1.10;1.00;;;17.70;52.50;;;;;;6160453;23;20229;-85
2023/10/31 03:42:08;;;;;;;1.63;1.10;;;17.70;52.40;;;;;;6160954;23;20215;-85
2023/10/31 03:44:33;;;;;;;2.22;1.10;;;17.70;52.50;;;;;;6185173;23;20254;-85
2023/10/31 03:46:59;;;;;;;1.27;1.10;;;17.70;52.50;;;;;;6135920;23;20150;-83
2023/10/31 03:49:25;;;;;;;2.13;0.95;;;17.70;52.40;;;;;;6185553;23;20148;-85
2023/10/31 03:51:50;;;;;;;1.10;1.00;;;17.60;52.40;;;;;;6185217;23;20474;-86
2023/10/31 03:54:17;;;;;;;1.27;1.00;;;17.70;52.50;;;;;;6184500;23;20134;-84
2023/10/31 03:56:43;;;;;;;1.38;1.17;;;17.70;52.50;;;;;;6160694;23;20147;-85
2023/10/31 03:59:09;;;;;;;0.95;0.90;;;17.70;52.50;;;;;;6186554;23;20170;-85
2023/10/31 04:01:35;;;;;;;1.75;0.98;;;17.70;52.60;;;;;;6136101;23;20242;-84
2023/10/31 04:04:01;;;;;;;1.80;1.20;;;17.60;52.60;;;;;;6160384;23;20202;-84
2023/10/31 04:06:27;;;;;;;1.95;1.00;;;17.70;52.60;;;;;;6160489;23;20158;-84
2023/10/31 04:08:53;;;;;;;1.25;0.88;;;17.70;52.60;;;;;;6135937;23;20462;-84
2023/10/31 04:11:18;;;;;;;1.92;1.00;;;17.60;52.60;;;;;;6184804;23;20146;-83
2023/10/31 04:13:45;;;;;;;2.33;1.05;;;17.60;52.60;;;;;;6160542;23;20174;-84
2023/10/31 04:16:11;;;;;;;1.10;0.90;;;17.60;52.60;;;;;;6160602;23;20142;-83
2023/10/31 04:18:37;;;;;;;1.75;0.90;;;17.70;52.60;;;;;;6184821;23;20166;-84
2023/10/31 04:21:03;;;;;;;1.40;0.88;;;17.70;52.60;;;;;;6160162;23;20158;-83
2023/10/31 04:23:29;;;;;;;1.60;1.00;;;17.70;52.60;;;;;;6160206;23;20138;-85
2023/10/31 04:25:55;;;;;;;1.25;1.08;;;17.60;52.60;;;;;;6135534;23;20143;-84
2023/10/31 04:28:20;;;;;;;1.67;1.17;;;17.60;52.60;;;;;;6135484;23;20146;-84
2023/10/31 04:30:46;;;;;;;1.40;1.00;;;17.60;52.60;;;;;;6135157;23;20194;-83
2023/10/31 04:33:12;;;;;;;1.23;0.90;;;17.60;52.60;;;;;;6186295;23;20135;-84
2023/10/31 04:35:37;;;;;;;1.77;1.00;;;17.60;52.60;;;;;;6160058;23;20193;-83
2023/10/31 04:38:03;;;;;;;1.83;1.10;;;17.60;52.60;;;;;;6159665;23;20143;-85
2023/10/31 04:40:28;;;;;;;3.40;1.10;;;17.60;52.60;;;;;;6159835;23;20258;-84
2023/10/31 04:42:54;;;;;;;1.92;0.90;;;17.60;52.70;;;;;;6160039;23;20230;-83
2023/10/31 04:45:20;;;;;;;1.90;1.38;;;17.60;52.70;;;;;;6160101;23;20139;-83
2023/10/31 04:47:46;;;;;;;2.42;1.23;;;17.60;52.70;;;;;;6159450;23;20458;-83
2023/10/31 04:50:12;;;;;;;2.47;1.17;;;17.60;52.70;;;;;;6186111;23;20249;-84
2023/10/31 04:52:38;;;;;;;1.83;1.00;;;17.60;52.70;;;;;;6184674;23;20131;-84
2023/10/31 04:55:04;;;;;;;1.27;0.90;;;17.60;52.70;;;;;;6185171;23;20158;-84
2023/10/31 04:57:29;;;;;;;1.30;1.00;;;17.60;52.70;;;;;;6135242;23;20183;-83
2023/10/31 04:59:57;;;;;;;1.48;0.80;;;17.60;52.80;;;;;;6159538;23;20178;-83
2023/10/31 05:02:23;;;;;;;3.65;1.00;;;17.60;52.80;;;;;;6184361;23;20142;-84
2023/10/31 05:04:50;;;;;;;1.42;0.88;;;17.60;52.80;;;;;;6184606;23;20165;-84
2023/10/31 05:07:18;;;;;;;1.50;1.17;;;17.60;52.80;;;;;;6186206;23;20567;-84
2023/10/31 05:09:44;;;;;;;1.20;0.90;;;17.60;52.80;;;;;;6184474;23;20139;-84
2023/10/31 05:12:09;;;;;;;1.50;1.00;;;17.60;52.70;;;;;;6159785;23;20586;-84
2023/10/31 05:14:35;;;;;;;2.40;1.00;;;17.60;52.70;;;;;;6160117;23;20493;-84
2023/10/31 05:17:01;;;;;;;1.48;1.00;;;17.60;52.70;;;;;;6184440;23;20135;-84
2023/10/31 05:19:27;;;;;;;2.38;1.00;;;17.60;52.70;;;;;;6184256;23;20249;-83
2023/10/31 05:21:53;;;;;;;1.45;1.10;;;17.70;52.80;;;;;;6159868;23;20143;-84
2023/10/31 05:24:18;;;;;;;1.92;0.90;;;17.50;52.70;;;;;;6159587;23;20138;-85
2023/10/31 05:26:44;;;;;;;1.20;0.85;;;17.60;53.40;;;;;;6184392;23;20131;-85
2023/10/31 05:29:11;;;;;;;1.38;1.20;;;17.60;52.70;;;;;;6184442;23;20166;-84
2023/10/31 05:31:37;;;;;;;0.93;0.90;;;17.60;52.70;;;;;;6140290;23;20577;-83
2023/10/31 05:34:04;;;;;;;1.70;1.00;;;17.60;52.80;;;;;;6164038;23;20181;-83
2023/10/31 05:36:30;;;;;;;1.83;1.10;;;17.60;52.80;;;;;;6189302;23;20157;-84
2023/10/31 05:38:56;;;;;;;2.28;1.20;;;17.50;52.80;;;;;;6189103;23;20192;-84
2023/10/31 05:41:21;;;;;;;2.20;1.05;;;17.60;52.90;;;;;;6139682;23;20169;-85
2023/10/31 05:43:47;;;;;;;1.13;0.93;;;17.60;52.80;;;;;;6164725;23;20169;-83
2023/10/31 05:46:14;;;;;;;1.75;1.17;;;17.60;52.80;;;;;;6216196;23;20130;-86
2023/10/31 05:48:43;;;;;;;1.30;1.05;;;17.60;52.80;;;;;;6140273;23;20176;-83
2023/10/31 05:51:17;;;;;;;2.03;1.10;;;17.50;52.80;;;;;;6189910;23;20157;-83
2023/10/31 05:53:44;;;;;;;1.77;1.20;;;17.60;52.90;;;;;;6163764;23;20192;-85
2023/10/31 05:56:11;;;;;;;1.60;0.90;;;17.60;52.90;;;;;;6189065;23;20134;-86
2023/10/31 05:58:38;;;;;;;1.13;1.02;;;17.60;52.80;;;;;;6188210;23;20617;-83
2023/10/31 06:01:04;;;;;;;1.73;1.20;;;17.60;52.80;;;;;;6164155;23;20558;-85
2023/10/31 06:03:30;;;;;;;1.60;1.05;;;17.60;52.90;;;;;;6164219;23;20134;-86
2023/10/31 06:05:55;;;;;;;2.95;1.10;;;17.60;52.90;;;;;;6139268;23;20173;-85
2023/10/31 06:08:21;;;;;;;1.38;1.00;;;17.60;52.90;;;;;;6163668;23;20146;-85
2023/10/31 06:10:47;;;;;;;1.85;0.90;;;17.60;52.90;;;;;;6164386;23;20226;-85
2023/10/31 06:13:12;;;;;;;1.23;1.10;;;17.60;52.90;;;;;;6215638;23;20126;-84
2023/10/31 06:15:39;;;;;;;1.23;1.08;;;17.60;53.00;;;;;;6164235;23;20208;-84
2023/10/31 06:18:05;;;;;;;1.20;1.10;;;17.60;53.00;;;;;;6188997;23;20465;-86
2023/10/31 06:20:34;;;;;;;1.65;1.00;;;17.60;53.00;;;;;;6189012;23;20123;-84
2023/10/31 06:23:03;;;;;;;1.70;1.10;;;17.50;52.90;;;;;;6114937;23;20653;-85
2023/10/31 06:25:30;;;;;;;1.20;0.90;;;17.60;53.00;;;;;;6115479;23;20307;-84
2023/10/31 06:27:55;;;;;;;1.48;1.02;;;17.50;52.90;;;;;;6090473;23;20237;-84
2023/10/31 06:30:21;;;;;;;0.88;0.75;;;17.60;53.00;;;;;;6165107;23;20213;-84
2023/10/31 06:32:47;;;;;;;1.67;1.10;;;17.60;53.00;;;;;;6215439;23;20146;-84
2023/10/31 06:35:13;;;;;;;2.22;0.93;;;17.50;53.00;;;;;;6164538;23;20462;-83
2023/10/31 06:37:39;;;;;;;1.13;1.02;;;17.50;53.00;;;;;;6164525;23;20145;-85
2023/10/31 06:40:05;;;;;;;1.42;0.95;;;17.60;53.00;;;;;;6188185;23;20889;-83
2023/10/31 06:42:31;;;;;;;1.48;0.95;;;17.60;52.90;;;;;;6188041;23;20166;-83
2023/10/31 06:44:56;;;;;;;3.10;1.00;;;17.70;52.80;;;;;;6139581;23;20142;-85
2023/10/31 06:47:22;;;;;;;1.00;0.90;;;17.70;52.70;;;;;;6139402;23;20135;-85
2023/10/31 06:49:48;;;;;;;0.95;0.90;;;17.70;52.70;;;;;;6188585;23;20157;-84
2023/10/31 06:52:14;;;;;;;1.40;0.90;;;17.70;52.60;;;;;;6163687;23;20473;-84
2023/10/31 06:54:40;;;;;;;1.67;1.05;;;17.80;52.60;;;;;;6138470;23;20149;-83
2023/10/31 06:57:06;;;;;;;1.98;1.00;;;17.80;52.60;;;;;;6164276;23;20138;-84
2023/10/31 06:59:31;;;;;;;1.00;0.90;;;17.90;52.60;;;;;;6163656;23;20261;-84
2023/10/31 07:01:57;;;;;;;1.50;0.75;;;17.80;52.50;;;;;;6164369;23;20597;-85
2023/10/31 07:04:23;;;;;;;1.20;1.08;;;17.90;52.50;;;;;;6167746;23;20138;-84
2023/10/31 07:06:56;;;;;;;3.33;1.10;;;17.90;52.40;;;;;;6189343;23;20138;-84
2023/10/31 07:09:24;;;;;;;1.27;1.00;;;17.90;52.40;;;;;;6215664;23;20134;-84
2023/10/31 07:11:51;;;;;;;0.90;0.75;;;17.80;52.20;;;;;;6141480;23;20161;-84
2023/10/31 07:14:20;;;;;;;1.00;0.90;;;18.00;52.30;;;;;;6168472;23;20244;-83
2023/10/31 07:16:48;;;;;;;1.15;0.98;;;18.00;52.20;;;;;;6118052;23;20160;-84
2023/10/31 07:19:17;;;;;;;0.80;0.70;;;18.10;52.10;;;;;;6194685;23;20489;-84
2023/10/31 07:21:43;;;;;;;1.52;0.95;;;18.10;52.00;;;;;;6169735;23;20213;-85
2023/10/31 07:24:09;;;;;;;0.93;0.85;;;18.10;52.00;;;;;;6194030;23;20130;-84
2023/10/31 07:26:35;;;;;;;1.77;0.88;;;18.10;51.90;;;;;;6219845;23;20157;-85
2023/10/31 07:29:02;;;;;;;0.95;0.80;;;18.20;51.90;;;;;;6193391;23;20138;-85
2023/10/31 07:31:29;;;;;;;0.98;0.70;;;18.20;51.70;;;;;;6169273;23;20220;-83
2023/10/31 07:33:57;;;;;;;1.40;1.00;;;18.20;51.70;;;;;;6196269;23;20153;-83
2023/10/31 07:36:22;;;;;;;1.30;0.90;;;18.30;51.70;;;;;;6167921;23;20156;-86
2023/10/31 07:38:48;;;;;;;0.60;0.60;;;18.30;51.60;;;;;;6191678;23;20166;-87
2023/10/31 07:41:14;;;;;;;1.17;0.73;;;18.30;51.60;;;;;;6167117;23;20185;-86
2023/10/31 07:43:42;;;;;;;2.65;0.85;;;18.30;51.60;;;;;;6193651;23;20229;-86
2023/10/31 07:46:11;;;;;;;1.95;0.82;;;18.30;51.60;;;;;;6169265;23;20180;-85
2023/10/31 07:48:37;;;;;;;0.93;0.70;;;18.40;51.70;;;;;;6220368;23;20138;-86
2023/10/31 07:51:03;;;;;;;2.83;1.00;;;18.30;51.70;;;;;;6169407;23;20152;-85
2023/10/31 07:53:30;;;;;;;0.60;0.60;;;18.40;51.70;;;;;;6221299;23;20141;-85
2023/10/31 07:55:56;;;;;;;0.70;0.70;;;18.40;51.70;;;;;;6170456;23;20130;-85
2023/10/31 07:58:29;;;;;;;0.70;0.70;;;18.50;51.60;;;;;;6148464;23;20164;-86
2023/10/31 08:00:55;;;;;;;0.73;0.73;;;18.50;51.40;;;;;;6175049;23;20146;-85
2023/10/31 08:03:22;;;;;;;1.65;0.90;;;18.60;51.50;;;;;;6171905;23;20165;-86
2023/10/31 08:05:48;;;;;;;1.15;0.80;;;18.60;51.40;;;;;;6194323;23;20188;-85
2023/10/31 08:08:16;;;;;;;0.90;0.68;;;18.70;51.30;;;;;;6194081;23;20154;-85
2023/10/31 08:10:41;;;;;;;1.20;0.85;;;18.70;51.10;;;;;;6146560;23;20149;-86
2023/10/31 08:13:12;;;;;;;0.60;0.60;;;18.70;51.10;;;;;;6145595;23;20142;-85
2023/10/31 08:15:38;;;;;;;1.10;0.80;;;18.70;51.20;;;;;;6195606;23;20426;-85
2023/10/31 08:18:10;;;;;;;0.70;0.55;;;18.70;51.20;;;;;;6177072;23;20130;-86
2023/10/31 08:20:36;;;;;;;2.88;1.00;;;18.60;51.30;;;;;;6203520;23;20153;-85
2023/10/31 08:23:03;;;;;;;0.82;0.60;;;18.60;51.30;;;;;;6148971;23;20244;-86
2023/10/31 08:25:38;;;;;;;0.70;0.70;;;18.60;51.40;;;;;;6225653;23;20131;-85
2023/10/31 08:28:04;;;;;;;2.22;0.80;;;18.60;51.50;;;;;;6150083;23;20196;-86
2023/10/31 08:30:32;;;;;;;0.60;0.60;;;18.70;51.40;;;;;;6201846;23;20193;-86
2023/10/31 08:33:00;;;;;;;0.82;0.77;;;18.70;51.30;;;;;;6176245;23;20146;-84
2023/10/31 08:35:26;;;;;;;1.38;0.55;;;18.70;51.30;;;;;;6174381;23;20137;-83
2023/10/31 08:37:52;;;;;;;1.70;0.77;;;18.80;51.40;;;;;;6169875;23;20138;-85
2023/10/31 08:40:19;;;;;;;1.00;0.70;;;18.80;51.60;;;;;;6193214;23;20162;-88
2023/10/31 08:42:46;;;;;;;0.98;0.70;;;18.80;51.60;;;;;;6193987;23;20530;-85
2023/10/31 08:45:13;;;;;;;0.75;0.75;;;18.80;51.40;;;;;;6168865;23;20149;-86
2023/10/31 08:47:38;;;;;;;0.77;0.77;;;18.80;51.40;;;;;;6192820;23;20169;-85
2023/10/31 08:50:05;;;;;;;0.68;0.60;;;18.90;51.50;;;;;;6221765;23;20146;-86
2023/10/31 08:52:31;;;;;;;0.60;0.60;;;18.80;51.60;;;;;;6173105;23;20229;-86
2023/10/31 08:54:57;;;;;;;1.05;0.80;;;18.90;51.90;;;;;;6169968;23;20150;-85
2023/10/31 08:57:23;;;;;;;1.20;0.60;;;18.90;51.90;;;;;;6220711;23;20134;-86
2023/10/31 08:59:49;;;;;;;1.40;0.50;;;18.90;51.70;;;;;;6193600;23;20249;-87
2023/10/31 09:02:14;;;;;;;1.30;0.50;;;18.90;51.70;;;;;;6194062;23;20156;-87
2023/10/31 09:04:40;;;;;;;1.52;0.70;;;18.80;51.80;;;;;;6147268;23;20269;-86
2023/10/31 09:07:06;;;;;;;0.75;0.68;;;18.80;52.20;;;;;;6170658;23;20137;-88
2023/10/31 09:09:31;;;;;;;1.00;0.90;;;18.90;52.20;;;;;;6170386;23;20146;-86
2023/10/31 09:11:57;;;;;;;1.05;0.70;;;18.90;52.00;;;;;;6220909;23;20187;-87
2023/10/31 09:14:23;;;;;;;2.38;0.77;;;18.90;52.00;;;;;;6169045;23;20182;-87
2023/10/31 09:16:48;;;;;;;1.67;0.60;;;18.90;51.90;;;;;;6192866;23;20153;-87
2023/10/31 09:19:14;;;;;;;0.77;0.68;;;18.90;52.00;;;;;;6218490;23;20219;-86
2023/10/31 09:21:42;;;;;;;1.23;0.60;;;18.90;52.00;;;;;;6166956;23;20150;-87
2023/10/31 09:24:09;;;;;;;0.75;0.60;;;18.90;52.10;;;;;;6116737;23;20185;-84
2023/10/31 09:26:35;;;;;;;2.40;0.70;;;18.90;52.10;;;;;;6168023;23;20137;-88
2023/10/31 09:29:01;;;;;;;0.68;0.60;;;18.90;52.10;;;;;;6192763;23;20214;-87
2023/10/31 09:31:27;;;;;;;0.68;0.68;;;18.90;52.00;;;;;;6190168;23;20189;-87
2023/10/31 09:33:53;;;;;;;1.10;0.85;;;19.00;52.00;;;;;;6166088;23;20174;-87
2023/10/31 09:36:23;;;;;;;2.03;0.77;;;18.90;52.00;;;;;;6166836;23;20566;-88
2023/10/31 09:38:49;;;;;;;1.08;0.65;;;19.00;52.10;;;;;;6167378;23;20174;-88
2023/10/31 09:41:15;;;;;;;0.85;0.60;;;19.00;52.00;;;;;;6141573;23;20134;-86
2023/10/31 09:43:42;;;;;;;1.05;0.73;;;19.00;52.10;;;;;;6219011;23;20130;-85
2023/10/31 09:46:09;;;;;;;1.38;0.50;;;19.00;52.00;;;;;;6169024;23;20288;-86
2023/10/31 09:48:40;;;;;;;1.48;0.82;;;19.00;52.00;;;;;;6170080;23;20138;-86
2023/10/31 09:51:06;;;;;;;0.90;0.60;;;19.00;52.00;;;;;;6167768;23;20591;-85
2023/10/31 09:53:32;;;;;;;2.40;0.60;;;19.00;52.10;;;;;;6174621;23;20135;-86
2023/10/31 09:55:59;;;;;;;0.60;0.60;;;19.00;52.00;;;;;;6175533;23;20196;-86
2023/10/31 09:58:27;;;;;;;0.70;0.60;;;19.00;52.00;;;;;;6146433;23;20166;-86
2023/10/31 10:00:54;;;;;;;2.53;0.60;;;19.00;52.10;;;;;;6171745;23;20130;-86
2023/10/31 10:03:20;;;;;;;0.55;0.52;;;19.00;52.10;;;;;;6197717;23;20182;-86
2023/10/31 10:05:47;;;;;;;0.98;0.70;;;19.00;52.20;;;;;;6171954;23;20139;-86
2023/10/31 10:08:14;;;;;;;1.10;0.60;;;19.00;52.30;;;;;;6145417;23;20146;-88
2023/10/31 10:10:40;;;;;;;1.48;0.68;;;19.00;52.20;;;;;;6147063;23;20146;-86
2023/10/31 10:13:07;;;;;;;1.17;0.60;;;19.00;52.20;;;;;;6196876;23;20161;-86
2023/10/31 10:15:48;;;;;;;2.05;0.50;;;19.00;52.20;;;;;;6200013;23;20140;-85
2023/10/31 10:18:27;;;;;;;0.70;0.70;;;19.00;52.20;;;;;;6198891;23;20134;-86
2023/10/31 10:20:56;;;;;;;1.63;0.55;;;19.00;52.50;;;;;;6175318;23;20141;-85
2023/10/31 10:23:22;;;;;;;1.77;0.63;;;19.00;52.50;;;;;;6172860;23;20184;-86
2023/10/31 10:25:49;;;;;;;1.35;0.65;;;19.00;52.60;;;;;;6148690;23;20237;-84
2023/10/31 10:28:15;;;;;;;1.73;0.47;;;19.00;52.60;;;;;;6149086;23;20145;-86
2023/10/31 10:30:41;;;;;;;4.25;0.60;;;19.10;52.60;;;;;;6168366;23;20241;-86
2023/10/31 10:33:07;;;;;;;1.45;0.50;;;19.00;52.50;;;;;;6144102;23;20213;-84
2023/10/31 10:35:34;;;;;;;0.60;0.38;;;19.10;52.60;;;;;;6144251;23;20154;-86
2023/10/31 10:38:03;;;;;;;1.08;0.50;;;19.10;52.60;;;;;;6142591;23;20139;-87
2023/10/31 10:40:34;;;;;;;1.92;0.60;;;19.10;52.60;;;;;;6168570;23;20166;-86
2023/10/31 10:43:01;;;;;;;3.00;0.60;;;19.10;52.60;;;;;;6193349;23;20179;-85
2023/10/31 10:45:31;;;;;;;2.13;0.50;;;19.10;52.60;;;;;;6145557;23;20181;-85
2023/10/31 10:47:57;;;;;;;1.05;0.55;;;19.10;52.60;;;;;;6116866;23;20186;-86
2023/10/31 10:50:29;;;;;;;1.13;0.52;;;19.10;52.60;;;;;;6166271;23;20150;-86
2023/10/31 10:53:07;;;;;;;2.25;0.70;;;19.10;52.70;;;;;;6170472;23;20178;-85
2023/10/31 10:55:35;;;;;;;3.40;0.40;;;19.10;52.80;;;;;;6194499;23;20146;-86
2023/10/31 10:58:05;;;;;;;2.30;0.50;;;19.10;52.90;;;;;;6169960;23;20143;-86
2023/10/31 11:00:32;;;;;;;2.22;0.68;;;19.10;52.90;;;;;;6166985;23;20477;-86
2023/10/31 11:03:04;;;;;;;0.68;0.50;;;19.00;53.10;;;;;;6190566;23;20131;-86
2023/10/31 11:05:30;;;;;;;0.60;0.40;;;19.10;53.10;;;;;;6143229;23;20161;-85
2023/10/31 11:07:56;;;;;;;2.20;0.57;;;19.10;53.00;;;;;;6170641;23;20175;-85
2023/10/31 11:10:28;;;;;;;2.35;0.43;;;19.10;52.90;;;;;;6173697;23;20161;-85
2023/10/31 11:12:56;;;;;;;0.55;0.40;;;19.00;53.00;;;;;;6114025;23;20162;-86
2023/10/31 11:15:23;;;;;;;1.20;0.40;;;19.00;53.20;;;;;;6064234;23;20164;-86
2023/10/31 11:17:57;;;;;;;1.67;0.70;;;19.00;53.20;;;;;;6064081;23;20164;-85
2023/10/31 11:20:28;;;;;;;0.40;0.40;;;19.00;53.10;;;;;;6091226;23;20175;-85
2023/10/31 11:23:04;;;;;;;2.53;0.50;;;19.00;53.20;;;;;;6066712;23;20151;-86
2023/10/31 11:25:30;;;;;;;0.50;0.50;;;19.10;53.10;;;;;;6090150;23;20207;-85
2023/10/31 11:28:13;;;;;;;0.85;0.40;;;19.10;53.00;;;;;;6090766;23;20159;-85
2023/10/31 11:30:40;;;;;;;2.05;0.60;;;19.10;53.00;;;;;;6088797;23;20302;-87
2023/10/31 11:33:11;;;;;;;2.58;0.50;;;19.10;52.90;;;;;;6031866;23;20175;-86
2023/10/31 11:35:40;;;;;;;1.13;0.60;;;19.00;53.10;;;;;;6103801;23;20592;-86
2023/10/31 11:38:07;;;;;;;0.50;0.40;;;19.00;53.20;;;;;;6054167;23;20588;-86
2023/10/31 11:40:35;;;;;;;1.23;0.40;;;19.00;53.20;;;;;;6076462;23;20172;-85
2023/10/31 11:43:04;;;;;;;0.60;0.50;;;19.00;53.10;;;;;;6038651;23;20586;-85
2023/10/31 11:45:36;;;;;;;0.57;0.40;;;18.90;53.10;;;;;;6136448;23;20162;-86
2023/10/31 11:48:02;;;;;;;0.52;0.52;;;19.00;53.10;;;;;;6163072;23;20178;-86
2023/10/31 11:50:30;;;;;;;0.45;0.43;;;19.00;53.00;;;;;;6140628;23;20146;-86
2023/10/31 11:53:14;;;;;;;0.63;0.40;;;19.00;53.00;;;;;;6162983;23;20139;-86
2023/10/31 11:55:42;;;;;;;1.65;0.45;;;19.00;53.00;;;;;;6148901;23;20251;-85
2023/10/31 11:58:17;;;;;;;0.30;0.30;;;19.00;53.10;;;;;;6193843;23;20219;-85
2023/10/31 12:00:45;;;;;;;0.30;0.30;;;19.00;53.20;;;;;;6145962;23;20201;-85
2023/10/31 12:03:17;;;;;;;2.70;0.47;;;19.00;53.10;;;;;;6193726;23;20132;-86
2023/10/31 12:05:56;;;;;;;0.50;0.50;;;19.00;53.00;;;;;;6119493;23;20225;-85
2023/10/31 12:08:27;;;;;;;0.40;0.40;;;19.00;53.00;;;;;;6168057;23;20130;-86
2023/10/31 12:11:02;;;;;;;1.40;0.70;;;19.10;52.90;;;;;;6142181;23;20191;-85
2023/10/31 12:13:31;;;;;;;0.30;0.30;;;19.10;53.00;;;;;;6115006;23;20186;-85
2023/10/31 12:15:57;;;;;;;0.73;0.47;;;19.00;53.10;;;;;;6191041;23;20154;-86
2023/10/31 12:18:23;;;;;;;0.90;0.32;;;19.00;53.20;;;;;;6140686;23;20146;-85
2023/10/31 12:20:50;;;;;;;0.52;0.40;;;18.90;53.30;;;;;;6143765;23;20139;-85
2023/10/31 12:23:17;;;;;;;2.83;0.52;;;19.00;53.30;;;;;;6166148;23;20174;-86
2023/10/31 12:25:53;;;;;;;0.30;0.30;;;19.00;53.20;;;;;;6165550;23;20139;-85
2023/10/31 12:28:24;;;;;;;0.65;0.40;;;19.00;53.10;;;;;;6139468;23;20150;-85
2023/10/31 12:30:51;;;;;;;3.38;0.40;;;19.00;53.10;;;;;;6137561;23;20646;-86
2023/10/31 12:33:17;;;;;;;4.22;0.50;;;19.00;53.10;;;;;;6163341;23;20127;-86
2023/10/31 12:35:43;;;;;;;1.42;0.45;;;18.90;53.10;;;;;;6162752;23;20138;-85
2023/10/31 12:38:10;;;;;;;1.42;0.30;;;18.90;53.10;;;;;;6164872;23;20210;-85
2023/10/31 12:40:37;;;;;;;3.65;0.52;;;19.00;53.10;;;;;;6167693;23;20182;-86
2023/10/31 12:43:03;;;;;;;0.45;0.35;;;19.10;53.10;;;;;;6141303;23;20149;-85
2023/10/31 12:45:29;;;;;;;1.13;0.50;;;19.00;53.20;;;;;;6164006;23;20131;-86